createdAt,value
2018-09-26T00:00:04.080Z,100.00
2018-09-26T00:02:36.572Z,100.00
2018-09-26T00:05:05.548Z,100.00
2018-09-26T00:07:34.446Z,100.00
2018-09-26T00:10:03.305Z,100.00
2018-09-26T00:12:32.372Z,100.00
2018-09-26T00:15:01.300Z,100.00
2018-09-26T00:17:30.196Z,100.00
2018-09-26T00:19:59.113Z,100.00
2018-09-26T00:22:27.999Z,100.00
2018-09-26T00:24:56.747Z,100.00
2018-09-26T00:27:25.559Z,100.00
2018-09-26T00:29:54.339Z,100.00
2018-09-26T00:32:23.138Z,100.00
2018-09-26T00:34:52.441Z,100.00
2018-09-26T00:37:21.365Z,100.00
2018-09-26T00:39:50.095Z,100.00
2018-09-26T00:42:19.078Z,100.00
2018-09-26T00:44:48.221Z,100.00
2018-09-26T00:47:17.300Z,100.00
2018-09-26T00:49:46.184Z,100.00
2018-09-26T00:52:15.024Z,100.00
2018-09-26T00:54:44.201Z,100.00
2018-09-26T00:57:13.287Z,100.00
2018-09-26T00:59:42.194Z,100.00
2018-09-26T01:02:10.900Z,100.00
2018-09-26T01:04:39.804Z,100.00
2018-09-26T01:07:08.687Z,100.00
2018-09-26T01:09:37.499Z,100.00
2018-09-26T01:12:06.545Z,100.00
2018-09-26T01:14:35.716Z,100.00
2018-09-26T01:17:04.581Z,100.00
2018-09-26T01:19:33.435Z,100.00
2018-09-26T01:22:02.126Z,100.00
2018-09-26T01:24:31.147Z,100.00
2018-09-26T01:26:59.827Z,100.00
2018-09-26T01:29:28.575Z,100.00
2018-09-26T01:31:57.712Z,100.00
2018-09-26T01:34:26.647Z,100.00
2018-09-26T01:36:55.518Z,100.00
2018-09-26T01:39:24.371Z,100.00
2018-09-26T01:41:53.521Z,100.00
2018-09-26T01:44:22.390Z,100.00
2018-09-26T01:46:51.270Z,100.00
2018-09-26T01:49:20.220Z,100.00
2018-09-26T01:51:49.108Z,100.00
2018-09-26T01:54:17.931Z,100.00
2018-09-26T01:56:47.059Z,100.00
2018-09-26T01:59:16.204Z,100.00
2018-09-26T02:01:45.155Z,100.00
2018-09-26T02:04:13.943Z,100.00
2018-09-26T02:06:42.772Z,100.00
2018-09-26T02:09:12.948Z,100.00
2018-09-26T02:11:41.831Z,100.00
2018-09-26T02:14:10.586Z,100.00
2018-09-26T02:16:39.518Z,100.00
2018-09-26T02:19:08.312Z,100.00
2018-09-26T02:21:37.615Z,100.00
2018-09-26T02:24:06.293Z,100.00
2018-09-26T02:26:35.380Z,100.00
2018-09-26T02:29:04.892Z,100.00
2018-09-26T02:31:33.708Z,100.00
2018-09-26T02:34:02.565Z,100.00
2018-09-26T02:36:31.354Z,100.00
2018-09-26T02:39:00.651Z,100.00
2018-09-26T02:41:29.541Z,100.00
2018-09-26T02:43:58.330Z,100.00
2018-09-26T02:46:27.167Z,100.00
2018-09-26T02:49:01.535Z,100.00
2018-09-26T02:51:30.535Z,100.00
2018-09-26T02:53:59.304Z,100.00
2018-09-26T02:56:28.224Z,100.00
2018-09-26T02:58:57.403Z,100.00
2018-09-26T03:01:26.289Z,100.00
2018-09-26T03:03:55.225Z,100.00
2018-09-26T03:06:24.346Z,100.00
2018-09-26T03:08:53.189Z,100.00
2018-09-26T03:11:22.393Z,100.00
2018-09-26T03:13:51.580Z,100.00
2018-09-26T03:16:20.382Z,100.00
2018-09-26T03:18:49.274Z,100.00
2018-09-26T03:21:18.230Z,100.00
2018-09-26T03:23:47.662Z,100.00
2018-09-26T03:26:16.804Z,100.00
2018-09-26T03:28:45.741Z,100.00
2018-09-26T03:31:14.724Z,100.00
2018-09-26T03:33:43.666Z,100.00
2018-09-26T03:36:12.548Z,100.00
2018-09-26T03:38:41.600Z,100.00
2018-09-26T03:41:10.492Z,100.00
2018-09-26T03:43:39.452Z,100.00
2018-09-26T03:46:08.315Z,100.00
2018-09-26T03:48:37.342Z,100.00
2018-09-26T03:51:06.701Z,100.00
2018-09-26T03:53:35.595Z,100.00
2018-09-26T03:56:04.721Z,100.00
2018-09-26T03:58:34.095Z,100.00
2018-09-26T04:03:58.938Z,100.00
2018-09-26T04:06:27.879Z,100.00
2018-09-26T04:08:57.185Z,100.00
2018-09-26T04:11:26.614Z,100.00
2018-09-26T04:13:56.031Z,100.00
2018-09-26T04:16:24.790Z,100.00
2018-09-26T04:18:53.522Z,100.00
2018-09-26T04:21:22.567Z,100.00
2018-09-26T04:23:51.299Z,100.00
2018-09-26T04:26:20.457Z,100.00
2018-09-26T04:28:49.725Z,100.00
2018-09-26T04:31:18.554Z,100.00
2018-09-26T04:33:47.410Z,100.00
2018-09-26T04:36:16.244Z,100.00
2018-09-26T04:38:45.918Z,100.00
2018-09-26T04:41:16.812Z,100.00
2018-09-26T04:43:45.744Z,100.00
2018-09-26T04:46:14.941Z,100.00
2018-09-26T04:48:43.741Z,100.00
2018-09-26T04:51:12.697Z,100.00
2018-09-26T04:53:41.504Z,100.00
2018-09-26T04:56:10.263Z,100.00
2018-09-26T04:58:39.163Z,100.00
2018-09-26T05:01:08.038Z,100.00
2018-09-26T05:03:37.055Z,100.00
2018-09-26T05:06:05.944Z,100.00
2018-09-26T05:08:34.744Z,100.00
2018-09-26T05:11:03.422Z,100.00
2018-09-26T05:13:32.200Z,100.00
2018-09-26T05:16:01.216Z,100.00
2018-09-26T05:18:30.107Z,100.00
2018-09-26T05:20:59.018Z,100.00
2018-09-26T05:23:27.791Z,100.00
2018-09-26T05:25:56.683Z,100.00
2018-09-26T05:28:25.670Z,100.00
2018-09-26T05:30:54.578Z,100.00
2018-09-26T05:33:24.279Z,100.00
2018-09-26T05:35:53.353Z,100.00
2018-09-26T05:38:22.665Z,100.00
2018-09-26T05:40:51.355Z,100.00
2018-09-26T05:43:20.709Z,100.00
2018-09-26T05:45:49.487Z,100.00
2018-09-26T05:48:18.415Z,100.00
2018-09-26T05:50:47.545Z,100.00
2018-09-26T05:53:16.425Z,100.00
2018-09-26T05:55:45.341Z,100.00
2018-09-26T05:58:14.199Z,100.00
2018-09-26T06:00:42.962Z,100.00
2018-09-26T06:03:11.778Z,100.00
2018-09-26T06:05:40.573Z,100.00
2018-09-26T06:08:09.323Z,100.00
2018-09-26T06:10:38.135Z,100.00
2018-09-26T06:13:07.387Z,100.00
2018-09-26T06:15:36.105Z,100.00
2018-09-26T06:18:04.899Z,100.00
2018-09-26T06:20:33.756Z,100.00
2018-09-26T06:23:02.568Z,100.00
2018-09-26T06:25:31.309Z,100.00
2018-09-26T06:28:00.254Z,100.00
2018-09-26T06:30:35.909Z,100.00
2018-09-26T06:33:04.644Z,100.00
2018-09-26T06:35:33.462Z,100.00
2018-09-26T06:38:02.236Z,100.00
2018-09-26T06:40:31.334Z,100.00
2018-09-26T06:43:00.563Z,100.00
2018-09-26T06:45:29.431Z,100.00
2018-09-26T06:48:04.806Z,100.00
2018-09-26T06:50:33.519Z,100.00
2018-09-26T06:53:02.472Z,100.00
2018-09-26T06:55:31.296Z,100.00
2018-09-26T06:58:00.150Z,100.00
2018-09-26T07:00:28.887Z,100.00
2018-09-26T07:02:57.991Z,99.99
2018-09-26T07:05:26.842Z,98.73
2018-09-26T07:07:55.621Z,100.00
2018-09-26T07:10:24.471Z,97.52
2018-09-26T07:12:53.271Z,95.50
2018-09-26T07:15:22.009Z,93.77
2018-09-26T07:17:51.168Z,92.53
2018-09-26T07:20:20.327Z,92.53
2018-09-26T07:22:48.950Z,93.20
2018-09-26T07:25:18.396Z,93.21
2018-09-26T07:27:47.519Z,92.13
2018-09-26T07:30:16.447Z,92.89
2018-09-26T07:32:45.527Z,90.15
2018-09-26T07:35:14.355Z,89.42
2018-09-26T07:37:43.677Z,89.71
2018-09-26T07:40:12.624Z,87.75
2018-09-26T07:42:41.407Z,86.51
2018-09-26T07:45:10.126Z,87.64
2018-09-26T07:47:38.995Z,86.66
2018-09-26T07:50:07.970Z,86.33
2018-09-26T07:52:37.070Z,85.26
2018-09-26T07:55:05.909Z,84.82
2018-09-26T07:57:35.093Z,85.02
2018-09-26T08:00:03.903Z,83.42
2018-09-26T08:02:32.816Z,82.59
2018-09-26T08:05:01.657Z,82.27
2018-09-26T08:07:30.863Z,81.69
2018-09-26T08:09:59.698Z,82.12
2018-09-26T08:12:28.572Z,82.34
2018-09-26T08:14:57.532Z,80.55
2018-09-26T08:17:26.665Z,81.23
2018-09-26T08:19:55.338Z,80.51
2018-09-26T08:22:24.198Z,78.24
2018-09-26T08:24:52.953Z,77.55
2018-09-26T08:27:21.670Z,76.59
2018-09-26T08:29:50.451Z,75.83
2018-09-26T08:32:19.262Z,74.43
2018-09-26T08:34:47.922Z,74.11
2018-09-26T08:37:17.167Z,72.84
2018-09-26T08:39:46.216Z,72.23
2018-09-26T08:42:15.027Z,70.43
2018-09-26T08:44:43.844Z,69.39
2018-09-26T08:47:12.798Z,68.84
2018-09-26T08:49:41.777Z,66.46
2018-09-26T08:52:10.667Z,66.68
2018-09-26T08:54:39.763Z,65.89
2018-09-26T08:57:08.857Z,63.18
2018-09-26T08:59:38.023Z,63.28
2018-09-26T09:02:06.921Z,61.81
2018-09-26T09:04:35.696Z,62.73
2018-09-26T09:07:04.476Z,60.25
2018-09-26T09:09:33.603Z,58.61
2018-09-26T09:12:02.706Z,57.16
2018-09-26T09:14:31.685Z,55.82
2018-09-26T09:17:00.500Z,55.82
2018-09-26T09:19:29.562Z,55.43
2018-09-26T09:21:58.577Z,55.24
2018-09-26T09:24:27.223Z,55.53
2018-09-26T09:26:55.966Z,54.24
2018-09-26T09:29:24.915Z,53.24
2018-09-26T09:31:53.746Z,53.07
2018-09-26T09:34:22.574Z,52.37
2018-09-26T09:36:51.439Z,52.98
2018-09-26T09:39:20.059Z,52.52
2018-09-26T09:41:48.871Z,51.67
2018-09-26T09:44:17.900Z,52.29
2018-09-26T09:46:47.182Z,52.51
2018-09-26T09:49:15.868Z,52.94
2018-09-26T09:51:44.778Z,52.60
2018-09-26T09:54:13.559Z,52.46
2018-09-26T09:56:42.351Z,51.97
2018-09-26T09:59:11.199Z,52.39
2018-09-26T10:01:40.054Z,51.53
2018-09-26T10:04:08.991Z,50.12
2018-09-26T10:06:38.290Z,49.19
2018-09-26T10:09:08.014Z,47.80
2018-09-26T10:11:36.849Z,46.55
2018-09-26T10:14:05.819Z,45.84
2018-09-26T10:16:34.940Z,45.23
2018-09-26T10:19:03.759Z,45.22
2018-09-26T10:21:32.491Z,45.50
2018-09-26T10:24:01.358Z,45.14
2018-09-26T10:26:30.131Z,45.29
2018-09-26T10:28:59.030Z,44.68
2018-09-26T10:31:27.905Z,45.03
2018-09-26T10:33:56.816Z,44.46
2018-09-26T10:36:25.719Z,44.69
2018-09-26T10:39:01.223Z,43.84
2018-09-26T10:41:30.251Z,44.34
2018-09-26T10:43:59.127Z,44.21
2018-09-26T10:46:28.076Z,44.25
2018-09-26T10:48:56.917Z,44.29
2018-09-26T10:51:25.816Z,43.80
2018-09-26T10:53:54.569Z,43.31
2018-09-26T10:56:23.306Z,43.00
2018-09-26T10:58:52.061Z,44.21
2018-09-26T11:01:20.859Z,44.44
2018-09-26T11:03:49.649Z,44.85
2018-09-26T11:06:18.727Z,44.65
2018-09-26T11:08:47.810Z,42.02
2018-09-26T11:11:16.646Z,41.11
2018-09-26T11:13:45.474Z,37.98
2018-09-26T11:16:14.708Z,36.35
2018-09-26T11:18:43.632Z,35.81
2018-09-26T11:21:12.580Z,33.72
2018-09-26T11:23:41.281Z,34.20
2018-09-26T11:26:09.978Z,33.12
2018-09-26T11:28:38.802Z,32.99
2018-09-26T11:31:07.854Z,32.48
2018-09-26T11:33:36.758Z,32.13
2018-09-26T11:36:05.759Z,32.66
2018-09-26T11:38:34.548Z,31.30
2018-09-26T11:41:03.374Z,30.13
2018-09-26T11:43:32.135Z,29.90
2018-09-26T11:46:00.903Z,30.92
2018-09-26T11:48:29.973Z,33.12
2018-09-26T11:50:58.981Z,34.28
2018-09-26T11:53:27.894Z,35.51
2018-09-26T11:55:57.350Z,36.08
2018-09-26T11:58:26.296Z,35.93
2018-09-26T12:00:55.092Z,36.65
2018-09-26T12:03:23.909Z,35.91
2018-09-26T12:05:52.654Z,36.50
2018-09-26T12:08:21.496Z,37.04
2018-09-26T12:10:50.495Z,37.14
2018-09-26T12:13:19.451Z,37.07
2018-09-26T12:15:48.251Z,37.51
2018-09-26T12:18:17.118Z,37.77
2018-09-26T12:20:45.788Z,38.19
2018-09-26T12:23:14.637Z,38.48
2018-09-26T12:25:43.325Z,38.46
2018-09-26T12:28:12.020Z,39.45
2018-09-26T12:30:40.741Z,38.55
2018-09-26T12:33:09.615Z,38.17
2018-09-26T12:35:38.789Z,39.71
2018-09-26T12:38:08.090Z,39.71
2018-09-26T12:40:37.234Z,38.57
2018-09-26T12:43:06.021Z,38.98
2018-09-26T12:45:34.883Z,40.04
2018-09-26T12:48:03.881Z,39.43
2018-09-26T12:50:32.670Z,39.64
2018-09-26T12:53:01.644Z,39.36
2018-09-26T12:55:30.528Z,38.79
2018-09-26T12:57:59.274Z,36.87
2018-09-26T13:00:28.167Z,36.96
2018-09-26T13:02:56.991Z,35.18
2018-09-26T13:05:26.022Z,34.25
2018-09-26T13:07:55.430Z,34.09
2018-09-26T13:10:24.389Z,33.54
2018-09-26T13:12:53.331Z,33.18
2018-09-26T13:15:22.367Z,32.49
2018-09-26T13:17:51.502Z,30.30
2018-09-26T13:20:20.455Z,31.29
2018-09-26T13:22:49.367Z,32.28
2018-09-26T13:25:18.074Z,31.58
2018-09-26T13:27:47.020Z,29.58
2018-09-26T13:30:15.704Z,30.32
2018-09-26T13:32:44.453Z,31.87
2018-09-26T13:35:13.217Z,30.41
2018-09-26T13:37:42.196Z,30.05
2018-09-26T13:40:11.012Z,30.17
2018-09-26T13:42:39.956Z,32.59
2018-09-26T13:45:08.779Z,33.78
2018-09-26T13:47:37.947Z,31.74
2018-09-26T13:50:06.838Z,34.54
2018-09-26T13:52:35.804Z,36.87
2018-09-26T13:55:04.542Z,38.17
2018-09-26T13:57:33.512Z,39.36
2018-09-26T14:00:02.312Z,40.07
2018-09-26T14:02:31.108Z,39.84
2018-09-26T14:04:59.831Z,40.46
2018-09-26T14:07:28.985Z,40.53
2018-09-26T14:09:58.635Z,39.78
2018-09-26T14:12:27.454Z,39.79
2018-09-26T14:14:56.273Z,41.71
2018-09-26T14:17:25.228Z,40.50
2018-09-26T14:19:53.945Z,40.13
2018-09-26T14:22:23.045Z,40.22
2018-09-26T14:24:51.706Z,41.51
2018-09-26T14:27:20.500Z,40.89
2018-09-26T14:29:49.669Z,40.51
2018-09-26T14:32:19.466Z,40.28
2018-09-26T14:35:51.921Z,40.67
2018-09-26T14:38:21.546Z,40.07
2018-09-26T14:40:51.016Z,39.33
2018-09-26T14:43:20.718Z,39.30
2018-09-26T14:45:50.685Z,38.62
2018-09-26T14:48:20.115Z,38.68
2018-09-26T14:50:49.732Z,38.36
2018-09-26T14:53:19.304Z,37.63
2018-09-26T14:55:48.947Z,37.33
2018-09-26T14:58:18.490Z,36.54
2018-09-26T15:00:47.923Z,37.42
2018-09-26T15:03:17.571Z,37.07
2018-09-26T15:05:47.306Z,36.97
2018-09-26T15:08:17.541Z,36.81
2018-09-26T15:10:46.931Z,37.12
2018-09-26T15:13:16.373Z,37.20
2018-09-26T15:15:46.058Z,37.32
2018-09-26T15:18:15.649Z,37.24
2018-09-26T15:20:45.183Z,37.25
2018-09-26T15:23:14.628Z,38.44
2018-09-26T15:25:44.154Z,39.11
2018-09-26T15:28:13.683Z,39.26
2018-09-26T15:30:43.178Z,38.73
2018-09-26T15:33:12.574Z,39.04
2018-09-26T15:35:48.541Z,38.87
2018-09-26T15:38:18.108Z,38.88
2018-09-26T15:40:47.632Z,38.96
2018-09-26T15:43:17.310Z,39.46
2018-09-26T15:45:46.661Z,40.08
2018-09-26T15:48:17.833Z,40.24
2018-09-26T15:50:47.424Z,40.84
2018-09-26T15:53:17.130Z,41.37
2018-09-26T15:55:47.993Z,41.08
2018-09-26T15:58:17.582Z,41.63
2018-09-26T16:00:46.949Z,41.52
2018-09-26T16:03:16.661Z,40.29
2018-09-26T16:05:46.785Z,41.51
2018-09-26T16:08:16.284Z,41.35
2018-09-26T16:10:46.304Z,40.11
2018-09-26T16:13:15.971Z,40.53
2018-09-26T16:15:46.056Z,41.06
2018-09-26T16:18:15.649Z,41.31
2018-09-26T16:20:45.354Z,40.14
2018-09-26T16:23:14.937Z,40.50
2018-09-26T16:25:45.424Z,40.19
2018-09-26T16:28:16.451Z,40.58
2018-09-26T16:30:46.178Z,39.88
2018-09-26T16:33:16.100Z,40.74
2018-09-26T16:35:46.015Z,40.77
2018-09-26T16:38:15.675Z,41.02
2018-09-26T16:40:45.354Z,40.85
2018-09-26T16:43:15.523Z,40.80
2018-09-26T16:45:45.692Z,41.18
2018-09-26T16:48:16.013Z,40.81
2018-09-26T16:50:46.027Z,41.17
2018-09-26T16:53:15.725Z,41.93
2018-09-26T16:55:45.211Z,41.92
2018-09-26T16:58:15.431Z,42.22
2018-09-26T17:00:45.242Z,43.98
2018-09-26T17:03:15.020Z,44.60
2018-09-26T17:05:44.553Z,43.77
2018-09-26T17:08:14.465Z,44.27
2018-09-26T17:10:45.440Z,44.80
2018-09-26T17:13:16.377Z,45.39
2018-09-26T17:15:46.917Z,46.24
2018-09-26T17:18:16.705Z,44.90
2018-09-26T17:20:46.477Z,44.29
2018-09-26T17:23:16.019Z,46.04
2018-09-26T17:25:46.083Z,45.27
2018-09-26T17:28:16.824Z,45.26
2018-09-26T17:30:46.558Z,45.61
2018-09-26T17:33:16.234Z,44.54
2018-09-26T17:35:45.752Z,44.60
2018-09-26T17:38:15.262Z,44.54
2018-09-26T17:40:45.582Z,43.96
2018-09-26T17:43:21.914Z,45.15
2018-09-26T17:45:52.049Z,44.17
2018-09-26T17:48:23.836Z,44.94
2018-09-26T17:50:53.646Z,43.84
2018-09-26T17:53:23.366Z,44.86
2018-09-26T17:55:53.763Z,45.31
2018-09-26T17:58:23.446Z,44.46
2018-09-26T18:00:53.721Z,45.25
2018-09-26T18:03:24.881Z,44.68
2018-09-26T18:05:54.479Z,45.25
2018-09-26T18:08:25.585Z,44.22
2018-09-26T18:11:22.218Z,43.60
2018-09-26T18:13:54.595Z,43.59
2018-09-26T18:16:24.697Z,43.01
2018-09-26T18:18:54.470Z,42.67
2018-09-26T18:21:25.202Z,42.78
2018-09-26T18:23:55.028Z,43.57
2018-09-26T18:26:25.139Z,42.99
2018-09-26T18:28:55.070Z,43.49
2018-09-26T18:31:25.161Z,42.88
2018-09-26T18:33:54.836Z,43.88
2018-09-26T18:36:24.897Z,43.55
2018-09-26T18:38:55.219Z,44.23
2018-09-26T18:41:25.062Z,43.56
2018-09-26T18:43:54.763Z,43.19
2018-09-26T18:46:24.351Z,43.30
2018-09-26T18:48:54.507Z,43.58
2018-09-26T18:51:25.939Z,42.96
2018-09-26T18:53:56.018Z,44.18
2018-09-26T18:56:25.697Z,43.20
2018-09-26T18:58:55.099Z,43.01
2018-09-26T19:01:26.041Z,43.57
2018-09-26T19:03:55.651Z,44.08
2018-09-26T19:06:25.310Z,44.34
2018-09-26T19:08:54.957Z,44.65
2018-09-26T19:11:24.511Z,44.88
2018-09-26T19:13:54.350Z,44.59
2018-09-26T19:16:25.265Z,44.83
2018-09-26T19:18:54.825Z,44.70
2018-09-26T19:21:24.887Z,45.20
2018-09-26T19:23:55.078Z,44.92
2018-09-26T19:26:25.566Z,45.32
2018-09-26T19:28:56.830Z,44.90
2018-09-26T19:31:26.386Z,44.99
2018-09-26T19:33:55.950Z,45.01
2018-09-26T19:36:25.753Z,44.57
2018-09-26T19:38:55.310Z,43.99
2018-09-26T19:41:24.809Z,44.61
2018-09-26T19:43:54.287Z,44.80
2018-09-26T19:46:24.181Z,44.52
2018-09-26T19:48:54.955Z,44.51
2018-09-26T19:51:24.585Z,44.49
2018-09-26T19:53:54.858Z,45.25
2018-09-26T19:56:24.875Z,45.09
2018-09-26T19:58:54.397Z,46.04
2018-09-26T20:01:24.113Z,45.84
2018-09-26T20:03:53.833Z,45.37
2018-09-26T20:06:23.253Z,46.06
2018-09-26T20:08:52.907Z,45.42
2018-09-26T20:11:22.764Z,46.12
2018-09-26T20:13:52.139Z,46.31
2018-09-26T20:16:21.445Z,45.07
2018-09-26T20:18:50.838Z,45.91
2018-09-26T20:21:20.353Z,45.62
2018-09-26T20:23:49.839Z,46.64
2018-09-26T20:26:19.361Z,46.12
2018-09-26T20:28:49.622Z,45.84
2018-09-26T20:31:19.180Z,45.56
2018-09-26T20:33:48.681Z,45.59
2018-09-26T20:36:18.298Z,45.38
2018-09-26T20:38:47.953Z,45.00
2018-09-26T20:41:17.436Z,45.64
2018-09-26T20:43:46.795Z,46.72
2018-09-26T20:46:16.212Z,46.74
2018-09-26T20:48:45.715Z,46.85
2018-09-26T20:51:15.233Z,45.61
2018-09-26T20:53:44.715Z,45.78
2018-09-26T20:56:13.731Z,45.92
2018-09-26T20:58:42.864Z,45.47
2018-09-26T21:01:11.714Z,45.53
2018-09-26T21:03:40.598Z,46.46
2018-09-26T21:06:09.678Z,45.82
2018-09-26T21:08:38.592Z,46.38
2018-09-26T21:11:07.687Z,46.70
2018-09-26T21:13:37.060Z,46.41
2018-09-26T21:16:07.190Z,46.44
2018-09-26T21:18:36.042Z,46.19
2018-09-26T21:21:05.297Z,46.33
2018-09-26T21:23:34.297Z,46.28
2018-09-26T21:26:03.546Z,46.53
2018-09-26T21:28:34.077Z,46.40
2018-09-26T21:31:04.805Z,46.54
2018-09-26T21:33:36.232Z,46.77
2018-09-26T21:36:08.260Z,47.73
2018-09-26T21:38:38.790Z,46.83
2018-09-26T21:41:07.733Z,46.95
2018-09-26T21:43:36.574Z,47.36
2018-09-26T21:46:05.640Z,47.54
2018-09-26T21:48:34.765Z,47.25
2018-09-26T21:51:04.047Z,48.23
2018-09-26T21:53:33.338Z,48.14
2018-09-26T21:56:05.331Z,46.82
2018-09-26T22:05:22.930Z,47.36
2018-09-26T22:07:54.298Z,47.49
2018-09-26T22:10:24.387Z,47.20
2018-09-26T22:12:54.812Z,47.18
2018-09-26T22:15:24.578Z,47.16
2018-09-26T22:17:54.826Z,48.01
2018-09-26T22:20:23.687Z,47.02
2018-09-26T22:22:52.753Z,47.22
2018-09-26T22:25:21.902Z,47.64
2018-09-26T22:27:51.181Z,47.24
2018-09-26T22:30:20.297Z,47.09
2018-09-26T22:32:49.161Z,47.87
2018-09-26T22:35:18.291Z,47.55
2018-09-26T22:37:47.590Z,47.92
2018-09-26T22:40:16.480Z,47.42
2018-09-26T22:42:45.575Z,47.39
2018-09-26T22:45:14.461Z,48.42
2018-09-26T22:47:43.767Z,48.77
2018-09-26T22:50:12.830Z,48.32
2018-09-26T22:52:42.147Z,48.71
2018-09-26T22:55:11.237Z,48.71
2018-09-26T22:57:40.529Z,49.08
2018-09-26T23:00:09.711Z,49.46
2018-09-26T23:02:38.536Z,49.19
2018-09-26T23:05:07.476Z,49.29
2018-09-26T23:07:36.319Z,49.27
2018-09-26T23:10:05.163Z,49.45
2018-09-26T23:12:34.106Z,49.84
2018-09-26T23:15:03.188Z,49.83
2018-09-26T23:17:32.284Z,50.72
2018-09-26T23:20:01.404Z,51.02
2018-09-26T23:22:30.297Z,51.42
2018-09-26T23:24:59.370Z,50.98
2018-09-26T23:27:28.257Z,51.05
2018-09-26T23:29:57.165Z,51.54
2018-09-26T23:32:25.978Z,52.06
2018-09-26T23:34:55.235Z,52.24
2018-09-26T23:37:24.049Z,52.12
2018-09-26T23:39:53.026Z,51.75
2018-09-26T23:42:22.534Z,51.99
2018-09-26T23:44:51.406Z,52.84
2018-09-26T23:47:20.504Z,52.29
2018-09-26T23:49:49.595Z,53.03
2018-09-26T23:52:18.405Z,53.03
2018-09-26T23:54:47.255Z,53.25
2018-09-26T23:57:16.258Z,53.74
2018-09-26T23:59:45.383Z,54.08
